createdAt,value
2023-02-27T00:01:21.593Z,6
2023-02-27T00:03:25.876Z,5
2023-02-27T00:07:27.105Z,4
2023-02-27T00:09:21.992Z,7
2023-02-27T00:11:22.083Z,5
2023-02-27T00:13:21.656Z,6
2023-02-27T00:15:23.673Z,6
2023-02-27T00:17:27.003Z,4
2023-02-27T00:19:17.606Z,4
2023-02-27T00:21:17.945Z,3
2023-02-27T00:23:20.336Z,4
2023-02-27T00:25:18.058Z,4
2023-02-27T00:27:17.950Z,4
2023-02-27T00:29:22.900Z,5
2023-02-27T00:31:20.495Z,7
2023-02-27T00:33:26.444Z,5
2023-02-27T00:35:23.337Z,3
2023-02-27T00:39:20.102Z,6
2023-02-27T00:43:18.820Z,3
2023-02-27T00:45:18.768Z,5
2023-02-27T00:47:18.865Z,4
2023-02-27T00:49:21.990Z,5
2023-02-27T00:53:22.013Z,5
2023-02-27T00:55:19.405Z,7
2023-02-27T00:59:24.376Z,6
2023-02-27T01:01:23.225Z,6
2023-02-27T01:03:23.045Z,9
2023-02-27T01:05:19.530Z,7
2023-02-27T01:07:19.630Z,7
2023-02-27T01:09:19.743Z,4
2023-02-27T01:17:21.881Z,3
2023-02-27T01:19:21.339Z,3
2023-02-27T01:21:20.406Z,3
2023-02-27T01:23:24.561Z,3
2023-02-27T01:25:20.595Z,3
2023-02-27T01:27:27.621Z,3
2023-02-27T01:33:25.895Z,4
2023-02-27T01:35:20.940Z,6
2023-02-27T01:37:20.950Z,13
2023-02-27T01:39:21.525Z,9
2023-02-27T01:41:21.156Z,4
2023-02-27T01:43:21.333Z,2
2023-02-27T01:45:24.524Z,3
2023-02-27T01:47:21.407Z,2
2023-02-27T01:49:21.473Z,3
2023-02-27T01:51:26.801Z,3
2023-02-27T01:53:21.681Z,3
2023-02-27T01:57:31.026Z,5
2023-02-27T01:59:22.051Z,5
2023-02-27T02:03:22.261Z,4
2023-02-27T02:07:27.182Z,4
2023-02-27T02:13:27.464Z,3
2023-02-27T02:15:22.958Z,4
2023-02-27T02:17:22.676Z,4
2023-02-27T02:19:23.460Z,4
2023-02-27T02:21:22.820Z,5
2023-02-27T02:23:23.069Z,4
2023-02-27T02:25:32.960Z,4
2023-02-27T02:27:28.861Z,4
2023-02-27T02:29:25.186Z,4
2023-02-27T02:31:26.643Z,4
2023-02-27T02:35:32.868Z,5
2023-02-27T02:37:23.652Z,4
2023-02-27T02:39:23.651Z,4
2023-02-27T02:43:23.669Z,4
2023-02-27T02:45:25.954Z,5
2023-02-27T02:47:31.332Z,5
2023-02-27T02:49:23.890Z,5
2023-02-27T02:51:27.850Z,6
2023-02-27T02:53:37.045Z,5
2023-02-27T02:55:29.210Z,5
2023-02-27T02:57:31.406Z,6
2023-02-27T02:59:27.124Z,10
2023-02-27T03:01:24.728Z,9
2023-02-27T03:05:28.654Z,9
2023-02-27T03:07:28.214Z,9
2023-02-27T03:11:25.967Z,9
2023-02-27T03:13:24.901Z,9
2023-02-27T03:15:25.175Z,9
2023-02-27T03:17:25.113Z,9
2023-02-27T03:19:25.329Z,9
2023-02-27T03:21:25.717Z,8
2023-02-27T03:23:25.365Z,8
2023-02-27T03:25:25.563Z,8
2023-02-27T03:31:26.582Z,9
2023-02-27T03:33:31.013Z,8
2023-02-27T03:35:25.951Z,8
2023-02-27T03:39:26.279Z,7
2023-02-27T03:41:31.094Z,7
2023-02-27T03:43:28.377Z,7
2023-02-27T03:45:29.532Z,7
2023-02-27T03:47:26.290Z,6
2023-02-27T03:49:31.212Z,7
2023-02-27T03:51:26.930Z,6
2023-02-27T03:53:26.558Z,6
2023-02-27T03:55:28.413Z,7
2023-02-27T03:57:30.250Z,7
2023-02-27T03:59:26.813Z,7
2023-02-27T04:01:27.346Z,7
2023-02-27T04:03:30.909Z,7
2023-02-27T04:05:30.717Z,7
2023-02-27T04:07:29.046Z,7
2023-02-27T04:09:29.311Z,9
2023-02-27T04:13:27.605Z,9
2023-02-27T04:15:27.468Z,11
2023-02-27T04:17:30.498Z,11
2023-02-27T04:19:30.832Z,11
2023-02-27T04:23:27.768Z,11
2023-02-27T04:25:57.887Z,11
2023-02-27T04:29:58.121Z,11
2023-02-27T04:32:02.019Z,9
2023-02-27T04:34:04.164Z,9
2023-02-27T04:35:58.440Z,9
2023-02-27T04:37:58.728Z,10
2023-02-27T04:39:58.666Z,11
2023-02-27T04:41:58.823Z,18
2023-02-27T04:43:58.937Z,16
2023-02-27T04:45:59.257Z,14
2023-02-27T04:48:01.645Z,17
2023-02-27T04:49:59.580Z,11
2023-02-27T04:52:00.240Z,14
2023-02-27T04:54:00.267Z,13
2023-02-27T04:55:59.722Z,13
2023-02-27T04:58:01.056Z,12
2023-02-27T05:00:01.458Z,14
2023-02-27T05:02:00.234Z,11
2023-02-27T05:04:00.670Z,12
2023-02-27T05:06:04.397Z,11
2023-02-27T05:08:00.284Z,13
2023-02-27T05:10:00.421Z,13
2023-02-27T05:12:00.502Z,13
2023-02-27T05:14:02.064Z,11
2023-02-27T05:16:03.814Z,12
2023-02-27T05:18:05.904Z,10
2023-02-27T05:20:01.052Z,12
2023-02-27T05:22:01.022Z,12
2023-02-27T05:26:01.253Z,11
2023-02-27T05:28:04.728Z,11
2023-02-27T05:30:06.456Z,9
2023-02-27T05:32:01.765Z,9
2023-02-27T05:34:01.674Z,9
2023-02-27T05:36:01.847Z,10
2023-02-27T05:38:01.908Z,11
2023-02-27T05:40:02.023Z,10
2023-02-27T05:42:02.125Z,11
2023-02-27T05:44:02.272Z,10
2023-02-27T05:46:08.338Z,10
2023-02-27T05:48:02.726Z,10
2023-02-27T05:50:07.397Z,13
2023-02-27T05:52:02.806Z,9
2023-02-27T05:54:02.789Z,16
2023-02-27T05:56:02.907Z,13
2023-02-27T05:58:04.799Z,11
2023-02-27T06:00:10.076Z,18
2023-02-27T06:02:13.255Z,22
2023-02-27T06:04:05.845Z,21
2023-02-27T06:06:05.660Z,14
2023-02-27T06:08:05.815Z,14
2023-02-27T06:10:06.323Z,12
2023-02-27T06:12:07.718Z,11
2023-02-27T06:14:04.759Z,11
2023-02-27T06:16:05.976Z,10
2023-02-27T06:18:06.165Z,11
2023-02-27T06:20:07.485Z,11
2023-02-27T06:22:06.406Z,28
2023-02-27T06:24:06.166Z,89
2023-02-27T06:26:13.887Z,46
2023-02-27T06:30:09.858Z,25
2023-02-27T06:32:04.891Z,23
2023-02-27T06:34:06.720Z,11
2023-02-27T06:36:05.623Z,13
2023-02-27T06:38:12.195Z,11
2023-02-27T06:42:07.869Z,10
2023-02-27T06:44:12.988Z,10
2023-02-27T06:46:08.128Z,10
2023-02-27T06:48:05.768Z,10
2023-02-27T06:50:10.768Z,9
2023-02-27T06:52:06.752Z,9
2023-02-27T06:54:08.014Z,10
2023-02-27T06:56:08.707Z,12
2023-02-27T06:58:09.059Z,17
2023-02-27T07:02:11.571Z,17
2023-02-27T07:04:16.589Z,16
2023-02-27T07:06:08.460Z,18
2023-02-27T07:08:11.789Z,16
2023-02-27T07:10:11.958Z,18
2023-02-27T07:12:08.684Z,18
2023-02-27T07:20:07.664Z,17
2023-02-27T07:22:12.459Z,16
2023-02-27T07:24:08.514Z,15
2023-02-27T07:26:07.760Z,14
2023-02-27T07:28:17.277Z,14
2023-02-27T07:30:08.093Z,12
2023-02-27T07:32:08.554Z,13
2023-02-27T07:34:11.073Z,13
2023-02-27T07:36:10.281Z,12
2023-02-27T07:38:15.958Z,12
2023-02-27T07:42:11.654Z,12
2023-02-27T07:44:14.692Z,13
2023-02-27T07:46:18.853Z,13
2023-02-27T07:48:13.005Z,14
2023-02-27T07:50:10.108Z,12
2023-02-27T07:52:09.117Z,12
2023-02-27T07:56:17.720Z,12
2023-02-27T07:58:10.505Z,12
2023-02-27T08:00:09.556Z,11
2023-02-27T08:04:19.827Z,13
2023-02-27T08:08:13.160Z,15
2023-02-27T08:10:14.995Z,28
2023-02-27T08:12:10.122Z,23
2023-02-27T08:14:15.024Z,20
2023-02-27T08:16:11.256Z,19
2023-02-27T08:18:12.026Z,22
2023-02-27T08:20:12.465Z,21
2023-02-27T08:22:14.481Z,18
2023-02-27T08:24:19.592Z,24
2023-02-27T08:26:20.881Z,21
2023-02-27T08:28:11.089Z,27
2023-02-27T08:30:11.248Z,18
2023-02-27T08:32:11.300Z,20
2023-02-27T08:34:11.378Z,24
2023-02-27T08:36:12.650Z,23
2023-02-27T08:38:13.658Z,20
2023-02-27T08:42:15.984Z,16
2023-02-27T08:44:13.601Z,20
2023-02-27T08:46:12.193Z,22
2023-02-27T08:50:12.392Z,31
2023-02-27T08:54:17.426Z,21
2023-02-27T08:58:19.787Z,21
2023-02-27T09:00:19.546Z,23
2023-02-27T09:04:19.708Z,25
2023-02-27T09:06:50.374Z,24
2023-02-27T09:08:18.645Z,26
2023-02-27T09:10:18.126Z,23
2023-02-27T09:12:16.045Z,24
2023-02-27T09:14:13.991Z,32
2023-02-27T09:16:13.706Z,25
2023-02-27T09:18:16.205Z,25
2023-02-27T09:22:16.690Z,26
2023-02-27T09:28:17.094Z,19
2023-02-27T09:32:17.752Z,21
2023-02-27T09:34:16.971Z,22
2023-02-27T09:36:14.639Z,30
2023-02-27T09:38:14.766Z,27
2023-02-27T09:40:14.888Z,30
2023-02-27T09:42:16.640Z,27
2023-02-27T09:44:25.212Z,22
2023-02-27T09:46:23.099Z,25
2023-02-27T09:48:15.251Z,25
2023-02-27T09:50:18.224Z,25
2023-02-27T09:52:17.984Z,26
2023-02-27T09:54:17.881Z,24
2023-02-27T09:56:17.463Z,26
2023-02-27T10:00:15.976Z,26
2023-02-27T10:02:19.768Z,26
2023-02-27T10:06:20.709Z,27
2023-02-27T10:08:16.596Z,24
2023-02-27T10:12:16.544Z,24
2023-02-27T10:14:19.185Z,27
2023-02-27T10:16:17.520Z,24
2023-02-27T10:18:26.062Z,25
2023-02-27T10:26:19.371Z,23
2023-02-27T10:28:17.185Z,26
2023-02-27T10:30:23.588Z,28
2023-02-27T10:32:17.858Z,29
2023-02-27T10:34:21.924Z,30
2023-02-27T10:36:33.117Z,24
2023-02-27T10:38:17.986Z,24
2023-02-27T10:40:17.803Z,24
2023-02-27T10:42:17.959Z,25
2023-02-27T10:44:19.234Z,25
2023-02-27T10:46:27.746Z,30
2023-02-27T10:50:21.127Z,30
2023-02-27T10:52:22.852Z,25
2023-02-27T10:54:22.384Z,27
2023-02-27T10:56:18.395Z,28
2023-02-27T10:58:19.580Z,25
2023-02-27T11:00:28.512Z,23
2023-02-27T11:02:27.990Z,23
2023-02-27T11:04:19.032Z,23
2023-02-27T11:06:20.259Z,23
2023-02-27T11:10:19.230Z,24
2023-02-27T11:12:19.200Z,27
2023-02-27T11:16:21.883Z,32
2023-02-27T11:18:19.449Z,36
2023-02-27T11:20:29.540Z,41
2023-02-27T11:22:29.610Z,37
2023-02-27T11:24:24.687Z,24
2023-02-27T11:28:21.470Z,25
2023-02-27T11:30:25.279Z,23
2023-02-27T11:32:21.478Z,29
2023-02-27T11:34:23.753Z,32
2023-02-27T11:38:20.685Z,29
2023-02-27T11:40:20.616Z,39
2023-02-27T11:42:22.410Z,28
2023-02-27T11:44:38.212Z,23
2023-02-27T11:46:47.328Z,29
2023-02-27T11:48:23.704Z,28
2023-02-27T11:50:23.010Z,29
2023-02-27T11:54:21.174Z,20
2023-02-27T12:00:24.432Z,21
2023-02-27T12:02:24.780Z,23
2023-02-27T12:04:21.607Z,22
2023-02-27T12:06:21.820Z,23
2023-02-27T12:08:23.250Z,21
2023-02-27T12:10:22.460Z,22
2023-02-27T12:12:21.987Z,23
2023-02-27T12:14:22.111Z,19
2023-02-27T12:16:22.300Z,18
2023-02-27T12:18:28.350Z,18
2023-02-27T12:20:25.449Z,19
2023-02-27T12:22:30.385Z,21
2023-02-27T12:24:25.994Z,18
2023-02-27T12:26:22.805Z,34
2023-02-27T12:28:24.932Z,83
2023-02-27T12:30:22.806Z,96
2023-02-27T12:32:23.189Z,41
2023-02-27T12:34:27.948Z,43
2023-02-27T12:36:27.999Z,45
2023-02-27T12:38:27.543Z,50
2023-02-27T12:40:28.192Z,36
2023-02-27T12:42:23.485Z,26
2023-02-27T12:44:23.435Z,29
2023-02-27T12:50:31.649Z,21
2023-02-27T12:56:34.035Z,35
2023-02-27T12:58:27.276Z,25
2023-02-27T13:02:32.058Z,22
2023-02-27T13:06:25.897Z,28
2023-02-27T13:08:26.875Z,27
2023-02-27T13:10:29.519Z,19
2023-02-27T13:12:30.816Z,19
2023-02-27T13:14:27.175Z,18
2023-02-27T13:16:29.837Z,19
2023-02-27T13:22:28.324Z,27
2023-02-27T13:24:27.828Z,22
2023-02-27T13:26:32.296Z,25
2023-02-27T13:28:28.683Z,23
2023-02-27T13:40:30.259Z,21
2023-02-27T13:42:26.160Z,20
2023-02-27T13:44:32.705Z,20
2023-02-27T13:46:29.172Z,19
2023-02-27T13:54:29.588Z,18
2023-02-27T13:56:31.416Z,21
2023-02-27T13:58:34.834Z,23
2023-02-27T14:00:32.091Z,23
2023-02-27T14:02:30.221Z,25
2023-02-27T14:04:31.737Z,26
2023-02-27T14:06:27.008Z,22
2023-02-27T14:08:27.076Z,20
2023-02-27T14:10:29.616Z,21
2023-02-27T14:14:33.661Z,24
2023-02-27T14:16:27.347Z,22
2023-02-27T14:18:33.960Z,20
2023-02-27T14:20:27.652Z,21
2023-02-27T14:22:32.318Z,24
2023-02-27T14:24:33.319Z,21
2023-02-27T14:26:27.846Z,21
2023-02-27T14:28:32.839Z,25
2023-02-27T14:32:28.282Z,21
2023-02-27T14:34:36.212Z,24
2023-02-27T14:36:30.874Z,22
2023-02-27T14:38:31.970Z,24
2023-02-27T14:44:37.710Z,43
2023-02-27T14:46:33.672Z,28
2023-02-27T14:48:33.675Z,29
2023-02-27T14:50:33.652Z,32
2023-02-27T14:52:33.336Z,28
2023-02-27T14:54:33.907Z,38
2023-02-27T14:56:31.796Z,27
2023-02-27T14:58:39.102Z,29
2023-02-27T15:00:30.966Z,40
2023-02-27T15:02:39.237Z,34
2023-02-27T15:05:04.398Z,36
2023-02-27T15:09:01.404Z,33
2023-02-27T15:17:00.364Z,27
2023-02-27T15:19:05.158Z,28
2023-02-27T15:21:04.056Z,34
2023-02-27T15:23:00.428Z,32
2023-02-27T15:25:00.503Z,34
2023-02-27T15:29:06.709Z,34
2023-02-27T15:31:01.551Z,37
2023-02-27T15:35:06.156Z,39
2023-02-27T15:39:02.700Z,37
2023-02-27T15:43:05.435Z,35
2023-02-27T15:45:01.888Z,29
2023-02-27T15:53:09.945Z,29
2023-02-27T15:55:12.041Z,29
2023-02-27T15:59:06.938Z,34
2023-02-27T16:01:07.972Z,40
2023-02-27T16:05:11.491Z,43
2023-02-27T16:07:08.332Z,36
2023-02-27T16:09:06.305Z,39
2023-02-27T16:11:07.847Z,38
2023-02-27T16:15:08.126Z,29
2023-02-27T16:19:04.798Z,36
2023-02-27T16:21:08.320Z,33
2023-02-27T16:25:08.679Z,37
2023-02-27T16:27:04.022Z,41
2023-02-27T16:29:08.825Z,40
2023-02-27T16:31:13.951Z,33
2023-02-27T16:33:06.821Z,35
2023-02-27T16:35:07.054Z,43
2023-02-27T16:37:04.857Z,37
2023-02-27T16:39:09.291Z,33
2023-02-27T16:41:05.531Z,35
2023-02-27T16:43:06.172Z,29
2023-02-27T16:45:07.280Z,32
2023-02-27T16:47:07.277Z,32
2023-02-27T16:51:06.824Z,32
2023-02-27T16:53:08.508Z,42
2023-02-27T16:55:09.289Z,33
2023-02-27T16:57:11.200Z,27
2023-02-27T16:59:05.923Z,29
2023-02-27T17:01:10.445Z,28
2023-02-27T17:03:10.390Z,34
2023-02-27T17:05:12.492Z,32
2023-02-27T17:07:10.817Z,32
2023-02-27T17:13:10.595Z,31
2023-02-27T17:15:06.264Z,33
2023-02-27T17:17:11.110Z,32
2023-02-27T17:21:12.529Z,34
2023-02-27T17:27:11.954Z,34
2023-02-27T17:29:10.167Z,35
2023-02-27T17:31:16.542Z,37
2023-02-27T17:33:14.571Z,32
2023-02-27T17:35:08.375Z,31
2023-02-27T17:39:09.057Z,30
2023-02-27T17:41:07.644Z,30
2023-02-27T17:43:08.598Z,30
2023-02-27T17:45:09.430Z,33
2023-02-27T17:47:08.960Z,31
2023-02-27T17:51:09.620Z,33
2023-02-27T17:55:18.382Z,32
2023-02-27T17:57:09.550Z,32
2023-02-27T17:59:08.400Z,35
2023-02-27T18:01:08.671Z,31
2023-02-27T18:05:09.731Z,32
2023-02-27T18:07:13.804Z,33
2023-02-27T18:09:14.109Z,31
2023-02-27T18:11:11.602Z,30
2023-02-27T18:13:12.248Z,32
2023-02-27T18:15:14.066Z,32
2023-02-27T18:21:12.161Z,32
2023-02-27T18:23:11.114Z,31
2023-02-27T18:25:16.739Z,27
2023-02-27T18:27:11.835Z,29
2023-02-27T18:29:10.947Z,29
2023-02-27T18:31:16.595Z,27
2023-02-27T18:33:15.084Z,31
2023-02-27T18:35:12.653Z,36
2023-02-27T18:37:10.270Z,42
2023-02-27T18:39:10.566Z,49
2023-02-27T18:41:11.353Z,47
2023-02-27T18:43:17.823Z,46
2023-02-27T18:45:15.700Z,42
2023-02-27T18:47:13.625Z,42
2023-02-27T18:49:17.494Z,38
2023-02-27T18:51:11.541Z,35
2023-02-27T18:53:14.887Z,30
2023-02-27T18:55:13.795Z,34
2023-02-27T18:59:12.735Z,28
2023-02-27T19:01:14.326Z,29
2023-02-27T19:03:16.676Z,35
2023-02-27T19:07:17.701Z,33
2023-02-27T19:09:13.073Z,31
2023-02-27T19:11:17.006Z,33
2023-02-27T19:13:12.672Z,33
2023-02-27T19:17:12.883Z,33
2023-02-27T19:19:16.411Z,29
2023-02-27T19:21:16.889Z,32
2023-02-27T19:23:12.744Z,34
2023-02-27T19:27:15.459Z,33
2023-02-27T19:29:22.860Z,32
2023-02-27T19:33:21.784Z,35
2023-02-27T19:35:16.672Z,34
2023-02-27T19:37:13.325Z,38
2023-02-27T19:41:17.269Z,40
2023-02-27T19:43:19.903Z,43
2023-02-27T19:47:18.933Z,38
2023-02-27T19:49:23.168Z,32
2023-02-27T19:51:14.097Z,33
2023-02-27T19:53:19.102Z,33
2023-02-27T19:55:17.060Z,34
2023-02-27T19:57:14.752Z,34
2023-02-27T20:01:14.870Z,36
2023-02-27T20:03:17.883Z,35
2023-02-27T20:05:15.598Z,34
2023-02-27T20:07:19.126Z,35
2023-02-27T20:09:15.059Z,36
2023-02-27T20:11:17.429Z,41
2023-02-27T20:13:15.118Z,35
2023-02-27T20:15:17.612Z,33
2023-02-27T20:17:21.837Z,36
2023-02-27T20:19:18.829Z,37
2023-02-27T20:21:15.614Z,39
2023-02-27T20:23:24.561Z,35
2023-02-27T20:25:20.621Z,34
2023-02-27T20:29:20.724Z,32
2023-02-27T20:31:16.238Z,31
2023-02-27T20:33:21.051Z,31
2023-02-27T20:35:18.663Z,32
2023-02-27T20:37:18.792Z,29
2023-02-27T20:39:18.209Z,31
2023-02-27T20:43:16.692Z,31
2023-02-27T20:45:16.661Z,32
2023-02-27T20:47:20.190Z,31
2023-02-27T20:49:26.845Z,34
2023-02-27T20:51:22.728Z,34
2023-02-27T20:53:24.891Z,37
2023-02-27T20:55:19.979Z,35
2023-02-27T20:57:22.191Z,34
2023-02-27T20:59:22.337Z,35
2023-02-27T21:01:22.476Z,47
2023-02-27T21:03:20.757Z,37
2023-02-27T21:05:19.177Z,31
2023-02-27T21:07:26.019Z,28
2023-02-27T21:09:22.754Z,27
2023-02-27T21:11:20.234Z,26
2023-02-27T21:17:23.279Z,37
2023-02-27T21:19:21.653Z,37
2023-02-27T21:21:19.918Z,40
2023-02-27T21:23:23.415Z,40
2023-02-27T21:25:23.509Z,39
2023-02-27T21:27:28.088Z,37
2023-02-27T21:29:23.684Z,35
2023-02-27T21:31:24.825Z,35
2023-02-27T21:35:28.435Z,40
2023-02-27T21:37:19.093Z,38
2023-02-27T21:39:23.568Z,39
2023-02-27T21:41:21.203Z,39
2023-02-27T21:47:24.688Z,44
2023-02-27T21:49:19.778Z,42
2023-02-27T21:51:38.289Z,47
2023-02-27T21:53:19.858Z,54
2023-02-27T21:55:22.571Z,57
2023-02-27T21:57:27.024Z,53
2023-02-27T22:01:26.598Z,52
2023-02-27T22:03:20.291Z,47
2023-02-27T22:05:20.506Z,45
2023-02-27T22:07:25.933Z,36
2023-02-27T22:09:28.218Z,40
2023-02-27T22:11:20.648Z,36
2023-02-27T22:13:22.837Z,34
2023-02-27T22:15:20.847Z,34
2023-02-27T22:17:25.428Z,34
2023-02-27T22:19:21.185Z,33
2023-02-27T22:21:25.062Z,36
2023-02-27T22:25:21.345Z,36
2023-02-27T22:27:23.769Z,35
2023-02-27T22:29:26.319Z,35
2023-02-27T22:31:32.255Z,34
2023-02-27T22:33:23.231Z,35
2023-02-27T22:35:22.810Z,34
2023-02-27T22:41:27.726Z,34
2023-02-27T22:43:30.328Z,34
2023-02-27T22:45:22.904Z,34
2023-02-27T22:47:26.773Z,34
2023-02-27T22:55:30.898Z,39
2023-02-27T23:03:25.616Z,42
2023-02-27T23:05:25.783Z,44
2023-02-27T23:07:23.189Z,43
2023-02-27T23:11:25.271Z,37
2023-02-27T23:13:23.479Z,36
2023-02-27T23:15:24.579Z,36
2023-02-27T23:17:23.680Z,35
2023-02-27T23:19:24.282Z,34
2023-02-27T23:21:24.017Z,40
2023-02-27T23:23:24.098Z,38
2023-02-27T23:25:24.085Z,37
2023-02-27T23:27:30.305Z,37
2023-02-27T23:31:25.832Z,36
2023-02-27T23:33:24.597Z,36
2023-02-27T23:35:25.567Z,35
2023-02-27T23:37:34.216Z,34
2023-02-27T23:39:24.785Z,32
2023-02-27T23:41:24.886Z,34
2023-02-27T23:45:25.273Z,34
2023-02-27T23:47:27.005Z,34
2023-02-27T23:51:25.471Z,33
2023-02-27T23:53:27.585Z,31
2023-02-27T23:55:29.069Z,32
2023-02-27T23:57:29.879Z,32
2023-02-27T23:59:25.566Z,30
